Roan Mountain, Tennessee
Current Conditions -  °F | °C
As of 10:35 PM on Saturday 22 Nov 2014 (Local Time) from K0A9 Reporting Station
Clear Clear  
Wind Chill: 32°   Ceiling: Unl
Heat Index: 37°   Visibility: 10mi
Dew Point: 23°   Wind: 7mph
Humidity: 56%   Direction: 70°ENE
Pressure: 30.25"   Gusts: NA
Location:  36.2°N, 82.07°W
Report Text: K0A9 230335Z AUTO 07006KT 10SM CLR 03/M05 A3025 RMK
Loading
Personal Weather Stations






























Interactive Weather Map New forecast layout! Learn more

10-Day Weather Forecast

Advertisements
Track Severe Weather on mobile